Time;durP1;ratioP1;P1;durP2;ratioP2;P2;SDS_P1;SDS_P2;PMS_P1;PMS_P2;Temp;Humidity;BMP_temperature;BMP_pressure;BME280_temperature;BME280_humidity;BME280_pressure;Samples;Min_cycle;Max_cycle;Signal;HPM_P1;HPM_P2
2022/10/05 00:00:15;;;;;;;0.20;0.20;;;;;;;;;;5008435;28;20423;-79
2022/10/05 00:02:41;;;;;;;0.10;0.10;;;;;;;;;;4991794;28;20569;-79
2022/10/05 00:05:25;;;;;;;0.40;0.40;;;;;;;;;;4990242;28;20438;-79
2022/10/05 00:07:52;;;;;;;0.10;0.10;;;;;;;;;;5010008;28;20782;-79
2022/10/05 00:10:19;;;;;;;0.30;0.28;;;;;;;;;;5008346;28;20771;-78
2022/10/05 00:12:45;;;;;;;0.20;0.20;;;;;;;;;;5025388;28;20485;-79
2022/10/05 00:15:12;;;;;;;0.22;0.13;;;;;;;;;;5007328;28;20437;-79
2022/10/05 00:17:40;;;;;;;0.30;0.30;;;;;;;;;;5006163;28;20431;-79
2022/10/05 00:20:17;;;;;;;0.10;0.10;;;;;;;;;;5024789;28;20488;-83
2022/10/05 00:22:43;;;;;;;0.22;0.22;;;;;;;;;;4992893;28;20434;-78
2022/10/05 00:25:14;;;;;;;0.90;0.40;;;;;;;;;;5009302;28;20425;-78
2022/10/05 00:27:41;;;;;;;0.10;0.10;;;;;;;;;;5004338;28;20432;-78
2022/10/05 00:30:17;;;;;;;0.10;0.10;;;;;;;;;;5023899;28;20872;-81
2022/10/05 00:32:44;;;;;;;0.10;0.10;;;;;;;;;;5007618;28;20434;-78
2022/10/05 00:35:11;;;;;;;0.20;0.20;;;;;;;;;;5008695;28;20426;-78
2022/10/05 00:37:37;;;;;;;0.17;0.17;;;;;;;;;;5008312;28;20434;-78
2022/10/05 00:40:07;;;;;;;0.50;0.50;;;;;;;;;;5025132;28;21060;-78
2022/10/05 00:42:57;;;;;;;0.10;0.10;;;;;;;;;;5007045;28;20530;-78
2022/10/05 00:45:43;;;;;;;0.10;0.10;;;;;;;;;;5006030;28;20435;-80
2022/10/05 00:48:41;;;;;;;0.10;0.10;;;;;;;;;;4966532;28;20435;-80
2022/10/05 00:51:14;;;;;;;0.20;0.20;;;;;;;;;;4973594;28;20436;-80
2022/10/05 00:53:41;;;;;;;0.10;0.10;;;;;;;;;;5005826;28;20434;-79
2022/10/05 00:56:16;;;;;;;0.10;0.10;;;;;;;;;;5007768;28;20926;-82
2022/10/05 00:58:45;;;;;;;0.10;0.10;;;;;;;;;;5007876;28;20443;-79
2022/10/05 01:01:16;;;;;;;0.10;0.10;;;;;;;;;;5023136;28;20467;-79
2022/10/05 01:03:42;;;;;;;0.13;0.13;;;;;;;;;;5008703;28;20427;-78
2022/10/05 01:06:44;;;;;;;0.30;0.30;;;;;;;;;;5007663;28;20434;-83
2022/10/05 01:09:18;;;;;;;0.10;0.10;;;;;;;;;;4983932;28;20442;-79
2022/10/05 01:11:50;;;;;;;0.10;0.10;;;;;;;;;;5000449;28;20810;-79
2022/10/05 01:14:16;;;;;;;0.30;0.30;;;;;;;;;;5024141;28;20442;-80
2022/10/05 01:16:53;;;;;;;0.10;0.10;;;;;;;;;;5007949;28;20431;-78
2022/10/05 01:19:55;;;;;;;0.10;0.10;;;;;;;;;;5007817;28;21005;-79
2022/10/05 01:22:46;;;;;;;0.10;0.10;;;;;;;;;;4979777;28;20438;-78
2022/10/05 01:25:19;;;;;;;0.20;0.20;;;;;;;;;;5005810;28;20517;-81
2022/10/05 01:27:54;;;;;;;0.20;0.20;;;;;;;;;;5021067;28;20996;-79
2022/10/05 01:30:21;;;;;;;0.20;0.20;;;;;;;;;;5005978;28;20431;-79
2022/10/05 01:32:54;;;;;;;0.00;0.00;;;;;;;;;;5019264;28;20596;-80
2022/10/05 01:35:20;;;;;;;0.20;0.20;;;;;;;;;;4991326;28;20910;-78
2022/10/05 01:37:46;;;;;;;0.10;0.10;;;;;;;;;;5005312;28;20428;-79
2022/10/05 01:40:15;;;;;;;0.10;0.10;;;;;;;;;;5007606;28;20516;-82
2022/10/05 01:42:51;;;;;;;0.80;0.60;;;;;;;;;;5003042;28;20430;-77
2022/10/05 01:45:17;;;;;;;0.20;0.20;;;;;;;;;;5021950;28;20439;-79
2022/10/05 01:47:49;;;;;;;0.10;0.10;;;;;;;;;;5006043;28;20427;-78
2022/10/05 01:50:24;;;;;;;0.10;0.10;;;;;;;;;;5005868;28;20423;-79
2022/10/05 01:52:56;;;;;;;0.40;0.20;;;;;;;;;;5002934;28;20441;-79
2022/10/05 01:55:31;;;;;;;0.30;0.20;;;;;;;;;;5008465;28;20439;-79
2022/10/05 01:57:57;;;;;;;0.50;0.40;;;;;;;;;;5006509;28;20493;-81
2022/10/05 02:00:23;;;;;;;0.30;0.30;;;;;;;;;;5007860;28;20462;-78
2022/10/05 02:03:02;;;;;;;0.10;0.10;;;;;;;;;;4983197;28;20436;-78
2022/10/05 02:05:46;;;;;;;0.15;0.15;;;;;;;;;;5005804;28;20482;-78
2022/10/05 02:08:15;;;;;;;0.10;0.10;;;;;;;;;;5006142;28;20520;-79
2022/10/05 02:10:43;;;;;;;0.10;0.10;;;;;;;;;;5007671;28;20441;-79
2022/10/05 02:13:11;;;;;;;0.10;0.10;;;;;;;;;;5023544;28;20925;-79
2022/10/05 02:15:44;;;;;;;0.20;0.20;;;;;;;;;;5018262;28;20438;-79
2022/10/05 02:18:12;;;;;;;3.50;0.50;;;;;;;;;;5005566;28;20422;-80
2022/10/05 02:20:40;;;;;;;0.90;0.30;;;;;;;;;;5005886;28;20426;-78
2022/10/05 02:23:15;;;;;;;0.10;0.10;;;;;;;;;;5000855;28;20548;-81
2022/10/05 02:25:44;;;;;;;0.10;0.10;;;;;;;;;;5021831;28;20477;-78
2022/10/05 02:28:20;;;;;;;0.10;0.10;;;;;;;;;;5010642;28;20526;-81
2022/10/05 02:30:52;;;;;;;0.10;0.10;;;;;;;;;;5008171;28;20435;-78
2022/10/05 02:33:29;;;;;;;0.20;0.20;;;;;;;;;;5009472;28;20431;-78
2022/10/05 02:35:59;;;;;;;0.50;0.30;;;;;;;;;;5015489;28;20427;-79
2022/10/05 02:38:58;;;;;;;0.10;0.10;;;;;;;;;;5013498;28;20942;-79
2022/10/05 02:41:44;;;;;;;0.25;0.25;;;;;;;;;;4975814;28;20924;-78
2022/10/05 02:44:19;;;;;;;0.10;0.10;;;;;;;;;;5027901;28;20433;-78
2022/10/05 02:46:48;;;;;;;0.10;0.10;;;;;;;;;;5025297;28;20438;-79
2022/10/05 02:49:20;;;;;;;0.10;0.10;;;;;;;;;;5021583;28;20954;-77
2022/10/05 02:52:01;;;;;;;0.10;0.10;;;;;;;;;;5011393;28;20427;-76
2022/10/05 02:54:33;;;;;;;0.20;0.20;;;;;;;;;;5010582;28;20447;-77
2022/10/05 02:57:06;;;;;;;0.10;0.10;;;;;;;;;;5025439;28;20954;-76
2022/10/05 02:59:37;;;;;;;0.10;0.10;;;;;;;;;;5010194;28;20438;-78
2022/10/05 03:02:03;;;;;;;0.10;0.10;;;;;;;;;;5007983;28;20519;-77
2022/10/05 03:04:29;;;;;;;0.10;0.10;;;;;;;;;;5009775;28;20519;-80
2022/10/05 03:07:05;;;;;;;0.10;0.10;;;;;;;;;;5020158;28;20489;-78
2022/10/05 03:09:36;;;;;;;0.10;0.10;;;;;;;;;;5008187;28;20468;-76
2022/10/05 03:12:25;;;;;;;1.20;1.00;;;;;;;;;;5025343;28;20484;-79
2022/10/05 03:15:00;;;;;;;0.28;0.28;;;;;;;;;;5010285;28;20485;-78
2022/10/05 03:17:30;;;;;;;0.20;0.10;;;;;;;;;;5007208;28;20431;-79
2022/10/05 03:20:19;;;;;;;0.10;0.10;;;;;;;;;;5024460;28;20456;-78
2022/10/05 03:22:54;;;;;;;0.10;0.10;;;;;;;;;;5004094;28;20427;-78
2022/10/05 03:25:20;;;;;;;0.00;0.00;;;;;;;;;;5005846;28;20442;-76
2022/10/05 03:27:53;;;;;;;0.30;0.20;;;;;;;;;;5009024;28;20431;-76
2022/10/05 03:30:21;;;;;;;0.10;0.10;;;;;;;;;;5007935;28;20569;-78
2022/10/05 03:32:55;;;;;;;0.40;0.20;;;;;;;;;;5005891;28;21049;-79
2022/10/05 03:35:29;;;;;;;0.10;0.10;;;;;;;;;;5009367;28;20446;-77
2022/10/05 03:38:15;;;;;;;0.05;0.05;;;;;;;;;;5024087;28;20950;-78
2022/10/05 03:41:05;;;;;;;0.10;0.10;;;;;;;;;;5009988;28;20455;-79
2022/10/05 03:43:46;;;;;;;0.17;0.17;;;;;;;;;;4995313;28;20433;-79
2022/10/05 03:46:12;;;;;;;0.20;0.20;;;;;;;;;;5012827;28;20429;-79
2022/10/05 03:48:44;;;;;;;0.10;0.10;;;;;;;;;;5012364;28;20432;-79
2022/10/05 03:51:29;;;;;;;0.10;0.10;;;;;;;;;;5013651;28;20493;-80
2022/10/05 03:53:57;;;;;;;0.10;0.10;;;;;;;;;;5013984;28;20525;-79
2022/10/05 03:56:31;;;;;;;0.10;0.10;;;;;;;;;;5015853;28;20446;-79
2022/10/05 03:59:01;;;;;;;0.10;0.10;;;;;;;;;;5007589;28;20809;-80
2022/10/05 04:01:44;;;;;;;0.10;0.10;;;;;;;;;;5012457;28;20929;-79
2022/10/05 04:04:13;;;;;;;0.70;0.50;;;;;;;;;;5027042;28;20581;-80
2022/10/05 04:06:45;;;;;;;0.40;0.40;;;;;;;;;;5004110;28;20426;-80
2022/10/05 04:09:17;;;;;;;0.17;0.17;;;;;;;;;;5009450;28;20439;-79
2022/10/05 04:11:56;;;;;;;0.10;0.10;;;;;;;;;;5006963;28;20426;-80
2022/10/05 04:14:24;;;;;;;0.10;0.10;;;;;;;;;;5015652;28;20834;-80
2022/10/05 04:17:23;;;;;;;1.60;0.60;;;;;;;;;;5014653;28;20434;-81
2022/10/05 04:19:55;;;;;;;0.05;0.05;;;;;;;;;;4965653;28;20432;-79
2022/10/05 04:22:22;;;;;;;0.10;0.10;;;;;;;;;;5009521;28;20429;-79
2022/10/05 04:24:53;;;;;;;0.20;0.10;;;;;;;;;;5013109;28;20437;-79
2022/10/05 04:27:20;;;;;;;0.13;0.13;;;;;;;;;;5004734;28;20879;-81
2022/10/05 04:29:55;;;;;;;0.28;0.28;;;;;;;;;;5011240;28;20441;-80
2022/10/05 04:32:24;;;;;;;0.10;0.10;;;;;;;;;;5000527;28;20431;-80
2022/10/05 04:35:16;;;;;;;0.30;0.30;;;;;;;;;;4990130;28;20435;-80
2022/10/05 04:37:55;;;;;;;0.10;0.10;;;;;;;;;;4996415;28;20433;-81
2022/10/05 04:40:20;;;;;;;0.10;0.10;;;;;;;;;;5014566;28;20435;-79
2022/10/05 04:43:05;;;;;;;0.10;0.10;;;;;;;;;;5014298;28;20774;-80
2022/10/05 04:45:50;;;;;;;0.28;0.28;;;;;;;;;;5012569;28;20427;-81
2022/10/05 04:48:35;;;;;;;0.20;0.20;;;;;;;;;;5013089;28;20434;-80
2022/10/05 04:51:08;;;;;;;0.10;0.10;;;;;;;;;;5003326;28;20431;-80
2022/10/05 04:53:37;;;;;;;0.20;0.20;;;;;;;;;;5016444;28;20432;-80
2022/10/05 04:56:11;;;;;;;0.15;0.15;;;;;;;;;;5005339;28;20432;-79
2022/10/05 04:58:47;;;;;;;0.10;0.10;;;;;;;;;;5013029;28;20438;-81
2022/10/05 05:01:32;;;;;;;0.20;0.20;;;;;;;;;;5009806;28;20444;-79
2022/10/05 05:04:11;;;;;;;0.10;0.10;;;;;;;;;;5012238;28;20427;-79
2022/10/05 05:06:37;;;;;;;0.10;0.10;;;;;;;;;;5013446;28;20434;-79
2022/10/05 05:09:22;;;;;;;0.20;0.20;;;;;;;;;;5000551;28;20762;-80
2022/10/05 05:11:54;;;;;;;0.10;0.10;;;;;;;;;;4996816;28;20491;-81
2022/10/05 05:14:33;;;;;;;0.30;0.30;;;;;;;;;;5012234;28;21089;-80
2022/10/05 05:17:18;;;;;;;0.10;0.10;;;;;;;;;;5004892;28;20500;-80
2022/10/05 05:19:59;;;;;;;0.40;0.40;;;;;;;;;;5011243;28;20906;-80
2022/10/05 05:22:35;;;;;;;0.32;0.32;;;;;;;;;;5005667;28;20430;-80
2022/10/05 05:25:24;;;;;;;0.20;0.20;;;;;;;;;;5013578;28;20423;-79
2022/10/05 05:27:58;;;;;;;0.00;0.00;;;;;;;;;;5004081;28;20953;-82
2022/10/05 05:30:26;;;;;;;0.50;0.40;;;;;;;;;;5028983;28;20783;-80
2022/10/05 05:33:28;;;;;;;0.10;0.10;;;;;;;;;;5011189;28;20434;-80
2022/10/05 05:36:05;;;;;;;0.10;0.10;;;;;;;;;;4972775;28;20438;-80
2022/10/05 05:38:36;;;;;;;0.10;0.10;;;;;;;;;;5021131;28;20428;-80
2022/10/05 05:41:02;;;;;;;0.10;0.10;;;;;;;;;;5013608;28;20454;-78
2022/10/05 05:43:34;;;;;;;0.10;0.10;;;;;;;;;;5011958;28;20458;-80
2022/10/05 05:46:03;;;;;;;0.10;0.10;;;;;;;;;;4996396;28;20472;-81
2022/10/05 05:48:43;;;;;;;0.10;0.10;;;;;;;;;;5006509;28;20985;-80
2022/10/05 05:51:09;;;;;;;0.20;0.20;;;;;;;;;;5013894;28;20426;-79
2022/10/05 05:53:39;;;;;;;0.10;0.10;;;;;;;;;;5010561;28;20438;-82
2022/10/05 05:56:09;;;;;;;0.40;0.40;;;;;;;;;;5002188;28;20778;-80
2022/10/05 05:58:38;;;;;;;0.40;0.20;;;;;;;;;;5018478;28;20431;-84
2022/10/05 06:01:20;;;;;;;0.15;0.15;;;;;;;;;;5012167;28;20942;-79
2022/10/05 06:03:48;;;;;;;0.10;0.10;;;;;;;;;;5008222;28;20436;-79
2022/10/05 06:06:19;;;;;;;0.30;0.30;;;;;;;;;;4981536;28;20432;-79
2022/10/05 06:08:50;;;;;;;0.30;0.30;;;;;;;;;;5010437;28;20514;-80
2022/10/05 06:11:25;;;;;;;0.25;0.25;;;;;;;;;;5002305;28;20438;-80
2022/10/05 06:13:52;;;;;;;0.40;0.40;;;;;;;;;;4994114;28;20434;-81
2022/10/05 06:16:35;;;;;;;0.00;0.00;;;;;;;;;;4996155;28;20427;-79
2022/10/05 06:19:20;;;;;;;0.10;0.10;;;;;;;;;;5009126;28;20428;-79
2022/10/05 06:21:52;;;;;;;0.25;0.25;;;;;;;;;;4998837;28;20433;-80
2022/10/05 06:24:45;;;;;;;0.30;0.30;;;;;;;;;;5007480;28;20506;-80
2022/10/05 06:27:35;;;;;;;0.10;0.10;;;;;;;;;;4999500;28;20926;-79
2022/10/05 06:30:04;;;;;;;0.80;0.60;;;;;;;;;;5004461;28;20496;-81
2022/10/05 06:32:34;;;;;;;0.20;0.20;;;;;;;;;;5013076;28;20591;-79
2022/10/05 06:35:19;;;;;;;0.10;0.10;;;;;;;;;;5013059;28;20968;-82
2022/10/05 06:37:56;;;;;;;0.25;0.25;;;;;;;;;;4999656;28;20478;-78
2022/10/05 06:40:41;;;;;;;0.10;0.10;;;;;;;;;;5010147;28;20440;-78
2022/10/05 06:43:10;;;;;;;0.10;0.10;;;;;;;;;;4995290;28;20999;-83
2022/10/05 06:45:36;;;;;;;0.10;0.10;;;;;;;;;;5007638;28;20440;-88
2022/10/05 06:48:21;;;;;;;0.10;0.10;;;;;;;;;;5000552;28;21039;-82
2022/10/05 06:50:52;;;;;;;0.13;0.13;;;;;;;;;;5011332;28;20434;-83
2022/10/05 06:53:22;;;;;;;0.10;0.10;;;;;;;;;;5009101;28;20460;-84
2022/10/05 06:56:07;;;;;;;0.10;0.10;;;;;;;;;;5003580;28;20851;-81
2022/10/05 06:58:33;;;;;;;0.20;0.20;;;;;;;;;;5011173;28;20477;-88
2022/10/05 07:01:14;;;;;;;0.30;0.30;;;;;;;;;;5025359;28;20682;-82
2022/10/05 07:03:40;;;;;;;0.15;0.15;;;;;;;;;;5010427;28;20432;-81
2022/10/05 07:06:19;;;;;;;0.10;0.10;;;;;;;;;;5013067;28;20445;-82
2022/10/05 07:09:12;;;;;;;1.15;0.90;;;;;;;;;;5001008;28;20440;-82
2022/10/05 07:11:47;;;;;;;0.28;0.28;;;;;;;;;;5012611;28;20450;-81
2022/10/05 07:14:29;;;;;;;0.10;0.10;;;;;;;;;;5015474;28;20438;-82
2022/10/05 07:16:55;;;;;;;0.40;0.40;;;;;;;;;;5015864;28;20442;-81
2022/10/05 07:19:40;;;;;;;0.10;0.10;;;;;;;;;;5015114;28;20439;-81
2022/10/05 07:22:23;;;;;;;0.00;0.00;;;;;;;;;;4997072;28;20465;-81
2022/10/05 07:25:09;;;;;;;0.10;0.10;;;;;;;;;;5011590;28;20411;-80
2022/10/05 07:27:39;;;;;;;0.10;0.10;;;;;;;;;;5013920;28;20427;-82
2022/10/05 07:30:10;;;;;;;0.10;0.10;;;;;;;;;;5011250;28;20464;-83
2022/10/05 07:32:45;;;;;;;0.32;0.32;;;;;;;;;;5028646;28;20425;-82
2022/10/05 07:38:18;;;;;;;0.10;0.10;;;;;;;;;;5007838;28;20452;-78
2022/10/05 07:40:49;;;;;;;0.10;0.10;;;;;;;;;;5010504;28;20919;-84
2022/10/05 07:43:15;;;;;;;0.17;0.17;;;;;;;;;;5002988;28;20954;-80
2022/10/05 07:45:44;;;;;;;0.10;0.10;;;;;;;;;;5009519;28;20439;-82
2022/10/05 07:48:13;;;;;;;0.10;0.10;;;;;;;;;;4996056;28;20432;-80
2022/10/05 07:50:55;;;;;;;0.17;0.17;;;;;;;;;;5011985;28;21239;-81
2022/10/05 07:53:28;;;;;;;0.10;0.10;;;;;;;;;;5002275;28;20452;-83
2022/10/05 07:55:55;;;;;;;1.90;0.20;;;;;;;;;;4976856;28;20484;-80
2022/10/05 07:58:30;;;;;;;0.10;0.10;;;;;;;;;;4994038;28;20496;-81
2022/10/05 08:01:18;;;;;;;0.10;0.10;;;;;;;;;;5002232;28;20450;-81
2022/10/05 08:03:53;;;;;;;0.10;0.10;;;;;;;;;;5014797;28;20490;-81
2022/10/05 08:06:39;;;;;;;0.10;0.10;;;;;;;;;;4994278;28;20451;-80
2022/10/05 08:09:24;;;;;;;0.10;0.10;;;;;;;;;;5006169;28;20430;-83
2022/10/05 08:11:55;;;;;;;0.10;0.10;;;;;;;;;;5011024;28;20432;-81
2022/10/05 08:14:21;;;;;;;1.60;0.17;;;;;;;;;;4988768;28;20449;-81
2022/10/05 08:16:48;;;;;;;0.10;0.10;;;;;;;;;;5005546;28;20487;-82
2022/10/05 08:19:18;;;;;;;0.10;0.10;;;;;;;;;;4995410;28;20506;-80
2022/10/05 08:21:51;;;;;;;0.10;0.10;;;;;;;;;;5011486;28;20436;-81
2022/10/05 08:24:29;;;;;;;0.20;0.20;;;;;;;;;;5009462;28;20425;-80
2022/10/05 08:27:19;;;;;;;0.10;0.10;;;;;;;;;;5010996;28;20769;-81
2022/10/05 08:30:24;;;;;;;0.00;0.00;;;;;;;;;;4997291;28;20788;-82
2022/10/05 08:32:56;;;;;;;0.00;0.00;;;;;;;;;;4923228;29;20507;-79
2022/10/05 08:35:42;;;;;;;0.10;0.10;;;;;;;;;;4916510;29;20446;-79
2022/10/05 08:38:28;;;;;;;0.10;0.10;;;;;;;;;;4983721;28;20518;-78
2022/10/05 08:41:04;;;;;;;0.10;0.10;;;;;;;;;;4990190;28;20422;-77
2022/10/05 08:43:49;;;;;;;0.10;0.10;;;;;;;;;;5001766;28;20447;-79
2022/10/05 08:46:24;;;;;;;0.10;0.10;;;;;;;;;;5007488;28;20485;-84
2022/10/05 08:48:50;;;;;;;0.10;0.10;;;;;;;;;;5007468;28;20470;-85
2022/10/05 08:51:29;;;;;;;0.10;0.10;;;;;;;;;;5013705;28;20430;-85
2022/10/05 08:54:15;;;;;;;0.10;0.10;;;;;;;;;;5009131;28;20470;-87
2022/10/05 08:57:00;;;;;;;0.10;0.10;;;;;;;;;;5020433;28;20495;-86
2022/10/05 08:59:44;;;;;;;0.10;0.10;;;;;;;;;;5005283;28;20474;-84
2022/10/05 09:02:14;;;;;;;0.20;0.20;;;;;;;;;;5003751;28;20454;-88
2022/10/05 09:05:02;;;;;;;0.10;0.10;;;;;;;;;;5011183;28;20430;-88
2022/10/05 09:07:51;;;;;;;0.10;0.10;;;;;;;;;;4994448;28;20504;-88
2022/10/05 09:10:26;;;;;;;0.20;0.20;;;;;;;;;;4997098;28;20433;-92
2022/10/05 09:12:55;;;;;;;0.10;0.10;;;;;;;;;;5014021;28;20510;-90
2022/10/05 09:15:40;;;;;;;0.10;0.10;;;;;;;;;;5011595;28;20435;-91
2022/10/05 09:18:22;;;;;;;0.20;0.20;;;;;;;;;;5012795;28;20461;-94
2022/10/05 09:20:52;;;;;;;0.10;0.10;;;;;;;;;;4997312;28;20779;-94
2022/10/05 09:23:31;;;;;;;0.10;0.10;;;;;;;;;;5012749;28;22095;-94
2022/10/05 09:26:02;;;;;;;0.20;0.15;;;;;;;;;;5005369;28;20994;-88
2022/10/05 09:28:37;;;;;;;0.20;0.20;;;;;;;;;;5002551;28;20422;-91
2022/10/05 09:31:15;;;;;;;0.10;0.10;;;;;;;;;;5008201;28;20827;-90
2022/10/05 09:33:41;;;;;;;0.10;0.10;;;;;;;;;;4993823;28;20469;-89
2022/10/05 09:36:11;;;;;;;0.10;0.10;;;;;;;;;;4995149;28;20426;-87
2022/10/05 09:38:37;;;;;;;0.20;0.20;;;;;;;;;;5013313;28;20942;-91
2022/10/05 09:41:22;;;;;;;0.10;0.10;;;;;;;;;;5012419;28;20797;-90
2022/10/05 09:43:48;;;;;;;0.10;0.10;;;;;;;;;;5009022;28;20914;-89
2022/10/05 09:46:33;;;;;;;0.10;0.10;;;;;;;;;;5011332;28;20470;-88
2022/10/05 09:49:02;;;;;;;0.30;0.30;;;;;;;;;;5011996;28;20418;-89
2022/10/05 09:51:36;;;;;;;0.25;0.25;;;;;;;;;;5002084;28;20502;-88
2022/10/05 09:54:21;;;;;;;0.70;0.30;;;;;;;;;;4994098;28;20445;-87
2022/10/05 09:57:03;;;;;;;0.10;0.10;;;;;;;;;;4993990;28;20526;-90
2022/10/05 09:59:39;;;;;;;0.10;0.10;;;;;;;;;;5012578;28;20782;-88
2022/10/05 10:02:15;;;;;;;0.17;0.17;;;;;;;;;;5012204;28;20850;-92
2022/10/05 10:05:00;;;;;;;1.00;0.40;;;;;;;;;;4996628;28;20431;-87
2022/10/05 10:07:29;;;;;;;0.15;0.15;;;;;;;;;;5012634;28;20434;-89
2022/10/05 10:10:14;;;;;;;0.10;0.10;;;;;;;;;;5010641;28;20492;-92
2022/10/05 10:12:59;;;;;;;2.00;0.80;;;;;;;;;;5010816;28;20435;-84
2022/10/05 10:15:25;;;;;;;0.10;0.10;;;;;;;;;;5015598;28;20439;-82
2022/10/05 10:18:03;;;;;;;0.10;0.10;;;;;;;;;;5006394;28;20427;-82
2022/10/05 10:20:35;;;;;;;0.10;0.10;;;;;;;;;;4985752;28;20443;-84
2022/10/05 10:23:05;;;;;;;0.17;0.17;;;;;;;;;;5017160;28;20433;-85
2022/10/05 10:25:47;;;;;;;0.20;0.20;;;;;;;;;;5010327;28;20444;-85
2022/10/05 10:28:33;;;;;;;0.10;0.10;;;;;;;;;;5010750;28;20459;-82
2022/10/05 10:31:05;;;;;;;0.32;0.32;;;;;;;;;;5013010;28;20519;-82
2022/10/05 10:33:40;;;;;;;0.10;0.10;;;;;;;;;;5022077;28;20431;-86
2022/10/05 10:36:13;;;;;;;0.10;0.10;;;;;;;;;;5011774;28;20497;-84
2022/10/05 10:38:41;;;;;;;0.10;0.10;;;;;;;;;;5010656;28;20433;-83
2022/10/05 10:41:22;;;;;;;0.10;0.10;;;;;;;;;;5010846;28;20443;-80
2022/10/05 10:44:05;;;;;;;0.30;0.30;;;;;;;;;;5012708;28;20423;-82
2022/10/05 10:46:31;;;;;;;0.10;0.10;;;;;;;;;;5001989;28;20442;-83
2022/10/05 10:48:57;;;;;;;0.22;0.20;;;;;;;;;;5017360;28;20906;-87
2022/10/05 10:51:35;;;;;;;0.10;0.10;;;;;;;;;;5018699;28;20823;-88
2022/10/05 10:54:14;;;;;;;0.10;0.10;;;;;;;;;;5015419;28;20740;-84
2022/10/05 10:56:58;;;;;;;0.10;0.10;;;;;;;;;;5016745;28;20435;-84
2022/10/05 10:59:40;;;;;;;0.10;0.10;;;;;;;;;;5017248;28;20437;-85
2022/10/05 11:02:18;;;;;;;0.20;0.20;;;;;;;;;;5009869;28;20922;-86
2022/10/05 11:04:44;;;;;;;0.30;0.20;;;;;;;;;;5017836;28;20896;-84
2022/10/05 11:07:32;;;;;;;0.10;0.10;;;;;;;;;;5015511;28;20435;-84
2022/10/05 11:10:08;;;;;;;0.10;0.10;;;;;;;;;;5015919;28;20497;-82
2022/10/05 11:12:47;;;;;;;0.10;0.10;;;;;;;;;;5016530;28;20450;-85
2022/10/05 11:15:32;;;;;;;0.10;0.10;;;;;;;;;;5017354;28;20494;-84
2022/10/05 11:18:10;;;;;;;0.10;0.10;;;;;;;;;;5012954;28;20519;-88
2022/10/05 11:20:48;;;;;;;0.30;0.30;;;;;;;;;;5011877;28;20411;-88
2022/10/05 11:23:17;;;;;;;0.20;0.20;;;;;;;;;;5000436;28;20403;-85
2022/10/05 11:25:52;;;;;;;0.10;0.10;;;;;;;;;;5000380;28;20438;-84
2022/10/05 11:28:37;;;;;;;0.10;0.10;;;;;;;;;;4999971;28;20473;-83
2022/10/05 11:31:22;;;;;;;0.40;0.40;;;;;;;;;;4994580;28;20507;-90
2022/10/05 11:33:51;;;;;;;0.28;0.28;;;;;;;;;;5000176;28;20438;-83
2022/10/05 11:36:17;;;;;;;0.10;0.10;;;;;;;;;;5007535;28;20440;-84
2022/10/05 11:38:53;;;;;;;0.10;0.10;;;;;;;;;;4994886;28;20534;-88
2022/10/05 11:41:54;;;;;;;0.10;0.10;;;;;;;;;;4987277;28;20577;-84
2022/10/05 11:44:39;;;;;;;0.10;0.10;;;;;;;;;;4968506;28;20431;-85
2022/10/05 11:47:23;;;;;;;0.03;0.03;;;;;;;;;;4996529;28;21027;-83
2022/10/05 11:49:52;;;;;;;0.10;0.10;;;;;;;;;;5008178;28;20429;-81
2022/10/05 11:52:34;;;;;;;0.10;0.10;;;;;;;;;;5008834;28;20443;-80
2022/10/05 11:55:04;;;;;;;0.30;0.20;;;;;;;;;;4999986;28;20448;-91
2022/10/05 11:57:36;;;;;;;0.10;0.10;;;;;;;;;;4994726;28;20440;-90
2022/10/05 12:00:08;;;;;;;0.38;0.30;;;;;;;;;;5009052;28;20465;-88
2022/10/05 12:02:53;;;;;;;0.10;0.10;;;;;;;;;;4995178;28;20437;-89
2022/10/05 12:05:34;;;;;;;0.20;0.20;;;;;;;;;;5005942;28;21052;-88
2022/10/05 12:08:16;;;;;;;0.10;0.10;;;;;;;;;;4976388;28;20450;-88
2022/10/05 12:10:45;;;;;;;0.40;0.30;;;;;;;;;;4977354;28;20438;-89
2022/10/05 12:13:14;;;;;;;0.30;0.30;;;;;;;;;;5002329;28;20498;-87
2022/10/05 12:15:49;;;;;;;0.10;0.10;;;;;;;;;;5020842;28;20424;-89
2022/10/05 12:18:21;;;;;;;0.10;0.10;;;;;;;;;;5008612;28;20437;-87
2022/10/05 12:20:51;;;;;;;0.22;0.22;;;;;;;;;;5011037;28;20439;-87
2022/10/05 12:23:20;;;;;;;0.10;0.10;;;;;;;;;;5010742;28;20520;-86
2022/10/05 12:26:04;;;;;;;0.10;0.10;;;;;;;;;;4998000;28;20441;-87
2022/10/05 12:28:40;;;;;;;0.30;0.30;;;;;;;;;;5004028;28;20442;-89
2022/10/05 12:31:11;;;;;;;0.10;0.10;;;;;;;;;;5008206;28;20440;-89
2022/10/05 12:33:50;;;;;;;0.10;0.10;;;;;;;;;;5005364;28;20467;-86
2022/10/05 12:36:19;;;;;;;1.15;0.20;;;;;;;;;;4988007;28;20435;-87
2022/10/05 12:39:03;;;;;;;0.10;0.10;;;;;;;;;;5002342;28;20445;-89
2022/10/05 12:41:35;;;;;;;0.13;0.13;;;;;;;;;;5006055;28;20444;-86
2022/10/05 12:44:01;;;;;;;0.10;0.10;;;;;;;;;;5009320;28;20924;-87
2022/10/05 12:46:37;;;;;;;0.10;0.10;;;;;;;;;;4991733;28;20436;-87
2022/10/05 12:49:21;;;;;;;0.10;0.10;;;;;;;;;;4994603;28;20440;-88
2022/10/05 12:51:53;;;;;;;0.10;0.10;;;;;;;;;;5005860;28;20548;-86
2022/10/05 12:54:33;;;;;;;1.80;0.60;;;;;;;;;;5007775;28;20459;-87
2022/10/05 12:57:12;;;;;;;0.10;0.10;;;;;;;;;;4981080;28;20439;-87
2022/10/05 12:59:50;;;;;;;0.10;0.10;;;;;;;;;;5013277;28;20550;-89
2022/10/05 13:02:29;;;;;;;0.10;0.10;;;;;;;;;;4988209;28;20429;-81
2022/10/05 13:04:55;;;;;;;0.10;0.10;;;;;;;;;;5008320;28;20551;-91
2022/10/05 13:07:27;;;;;;;0.13;0.13;;;;;;;;;;5008213;28;20467;-85
2022/10/05 13:09:53;;;;;;;0.20;0.20;;;;;;;;;;4991297;28;21011;-86
2022/10/05 13:12:28;;;;;;;0.10;0.10;;;;;;;;;;5000602;28;20792;-84
2022/10/05 13:15:14;;;;;;;0.10;0.10;;;;;;;;;;5008222;28;20448;-84
2022/10/05 13:17:47;;;;;;;0.10;0.10;;;;;;;;;;4997459;28;20439;-84
2022/10/05 13:20:26;;;;;;;0.10;0.10;;;;;;;;;;4999127;28;20584;-86
2022/10/05 13:23:16;;;;;;;0.10;0.10;;;;;;;;;;5008605;28;20915;-85
2022/10/05 13:26:01;;;;;;;0.10;0.10;;;;;;;;;;4999718;28;20464;-88
2022/10/05 13:28:32;;;;;;;0.10;0.10;;;;;;;;;;5009044;28;20523;-84
2022/10/05 13:31:14;;;;;;;0.03;0.03;;;;;;;;;;5006483;28;20525;-86
2022/10/05 13:33:52;;;;;;;0.10;0.10;;;;;;;;;;4991584;28;20443;-86
2022/10/05 13:36:28;;;;;;;0.50;0.30;;;;;;;;;;4990284;28;20975;-84
2022/10/05 13:39:02;;;;;;;0.20;0.20;;;;;;;;;;4980093;28;20920;-84
2022/10/05 13:42:04;;;;;;;0.80;0.40;;;;;;;;;;5005639;28;20452;-85
2022/10/05 13:44:44;;;;;;;0.10;0.10;;;;;;;;;;4959365;28;20539;-84
2022/10/05 13:47:28;;;;;;;0.10;0.10;;;;;;;;;;5018748;28;20441;-85
2022/10/05 13:50:01;;;;;;;0.20;0.20;;;;;;;;;;4985352;28;20453;-84
2022/10/05 13:52:37;;;;;;;0.70;0.38;;;;;;;;;;5006116;28;20444;-84
2022/10/05 13:55:14;;;;;;;0.10;0.10;;;;;;;;;;4990824;28;20912;-87
2022/10/05 13:57:52;;;;;;;0.10;0.10;;;;;;;;;;5007352;28;20776;-87
2022/10/05 14:00:20;;;;;;;0.10;0.10;;;;;;;;;;4987269;28;20487;-85
2022/10/05 14:02:51;;;;;;;0.10;0.10;;;;;;;;;;5009238;28;20483;-84
2022/10/05 14:05:28;;;;;;;0.20;0.20;;;;;;;;;;5002044;28;20868;-88
2022/10/05 14:08:12;;;;;;;0.10;0.10;;;;;;;;;;4989127;28;20425;-88
2022/10/05 14:10:39;;;;;;;0.10;0.10;;;;;;;;;;5008291;28;20798;-89
2022/10/05 14:13:17;;;;;;;0.10;0.10;;;;;;;;;;5007835;28;20440;-87
2022/10/05 14:15:55;;;;;;;0.40;0.30;;;;;;;;;;4988704;28;20442;-89
2022/10/05 14:18:25;;;;;;;0.20;0.20;;;;;;;;;;5006453;28;20864;-88
2022/10/05 14:21:04;;;;;;;0.00;0.00;;;;;;;;;;5008485;28;20436;-86
2022/10/05 14:23:30;;;;;;;0.10;0.10;;;;;;;;;;5019661;28;20437;-85
2022/10/05 14:25:56;;;;;;;0.10;0.10;;;;;;;;;;4987683;28;20473;-85
2022/10/05 14:28:28;;;;;;;2.10;0.80;;;;;;;;;;5009076;28;20430;-87
2022/10/05 14:31:03;;;;;;;0.20;0.20;;;;;;;;;;5010167;28;20583;-85
2022/10/05 14:33:31;;;;;;;0.10;0.10;;;;;;;;;;4994878;28;20468;-85
2022/10/05 14:35:58;;;;;;;1.70;0.20;;;;;;;;;;5010090;28;20519;-89
2022/10/05 14:38:28;;;;;;;0.10;0.10;;;;;;;;;;5008670;28;20433;-85
2022/10/05 14:41:07;;;;;;;0.20;0.20;;;;;;;;;;5004196;28;20458;-89
2022/10/05 14:43:34;;;;;;;0.10;0.10;;;;;;;;;;5002688;28;20810;-86
2022/10/05 14:46:18;;;;;;;0.10;0.10;;;;;;;;;;5011797;28;20432;-84
2022/10/05 14:48:45;;;;;;;2.90;0.40;;;;;;;;;;5012572;28;20472;-88
2022/10/05 14:51:27;;;;;;;0.10;0.10;;;;;;;;;;5011199;28;20458;-82
2022/10/05 14:54:00;;;;;;;0.20;0.20;;;;;;;;;;5010680;28;20587;-88
2022/10/05 14:56:26;;;;;;;0.20;0.20;;;;;;;;;;4996065;28;20796;-85
2022/10/05 14:59:03;;;;;;;0.10;0.10;;;;;;;;;;5009980;28;20784;-88
2022/10/05 15:01:35;;;;;;;0.10;0.10;;;;;;;;;;5013781;28;20996;-87
2022/10/05 15:04:20;;;;;;;0.60;0.20;;;;;;;;;;4995516;28;20436;-87
2022/10/05 15:06:49;;;;;;;0.20;0.20;;;;;;;;;;5012371;28;20476;-89
2022/10/05 15:09:34;;;;;;;0.10;0.10;;;;;;;;;;5011783;28;20438;-87
2022/10/05 15:12:01;;;;;;;0.10;0.10;;;;;;;;;;4998809;28;20457;-89
2022/10/05 15:14:36;;;;;;;0.10;0.10;;;;;;;;;;5007129;28;20511;-78
2022/10/05 15:17:22;;;;;;;0.20;0.20;;;;;;;;;;4996326;28;20509;-79
2022/10/05 15:19:57;;;;;;;0.50;0.40;;;;;;;;;;4990048;28;20421;-79
2022/10/05 15:22:23;;;;;;;0.10;0.10;;;;;;;;;;5008350;28;20471;-79
2022/10/05 15:24:50;;;;;;;0.25;0.25;;;;;;;;;;5009165;28;20507;-83
2022/10/05 15:27:28;;;;;;;0.10;0.10;;;;;;;;;;5011567;28;20582;-85
2022/10/05 15:30:03;;;;;;;0.10;0.10;;;;;;;;;;5013201;28;20506;-86
2022/10/05 15:32:41;;;;;;;0.10;0.10;;;;;;;;;;4995313;28;20460;-84
2022/10/05 15:35:10;;;;;;;0.10;0.10;;;;;;;;;;5002632;28;20437;-84